createdAt,value
2023-01-29T00:02:23.410Z,-1.80
2023-01-29T00:04:53.730Z,-1.90
2023-01-29T00:07:26.248Z,-1.80
2023-01-29T00:09:55.841Z,-1.30
2023-01-29T00:12:27.366Z,-2.10
2023-01-29T00:14:56.539Z,-2.20
2023-01-29T00:17:25.355Z,-2.30
2023-01-29T00:19:54.559Z,-2.30
2023-01-29T00:22:23.908Z,-2.10
2023-01-29T00:24:53.068Z,-2.30
2023-01-29T00:27:22.163Z,-2.30
2023-01-29T00:30:10.107Z,-1.80
2023-01-29T00:32:38.836Z,-2.30
2023-01-29T00:35:11.953Z,-2.10
2023-01-29T00:37:41.738Z,-2.30
2023-01-29T00:40:12.326Z,-2.30
2023-01-29T00:42:58.097Z,-2.30
2023-01-29T00:45:28.870Z,-1.10
2023-01-29T00:47:58.109Z,-1.60
2023-01-29T00:50:27.760Z,-2.10
2023-01-29T00:52:57.025Z,-2.60
2023-01-29T00:55:26.193Z,-1.70
2023-01-29T00:57:55.104Z,-2.80
2023-01-29T01:00:25.263Z,-2.10
2023-01-29T01:03:06.583Z,-2.90
2023-01-29T01:05:37.277Z,-2.90
2023-01-29T01:08:28.310Z,-2.80
2023-01-29T01:11:01.009Z,-2.80
2023-01-29T01:13:30.395Z,-2.70
2023-01-29T01:15:59.018Z,-2.60
2023-01-29T01:18:32.153Z,-1.60
2023-01-29T01:21:01.403Z,-2.10
2023-01-29T01:23:32.040Z,-2.70
2023-01-29T01:26:00.727Z,-2.60
2023-01-29T01:28:30.339Z,-2.50
2023-01-29T01:30:59.709Z,-1.10
2023-01-29T01:33:30.022Z,-2.10
2023-01-29T01:36:03.861Z,-2.20
2023-01-29T01:38:32.989Z,-2.50
2023-01-29T01:41:01.943Z,-2.50
2023-01-29T01:43:31.118Z,-2.40
2023-01-29T01:46:00.491Z,-2.30
2023-01-29T01:48:31.741Z,-1.50
2023-01-29T01:51:04.453Z,-1.40
2023-01-29T01:53:39.089Z,-1.50
2023-01-29T01:56:11.239Z,-2.50
2023-01-29T01:58:43.636Z,-2.50
2023-01-29T02:01:13.998Z,-1.70
2023-01-29T02:04:04.792Z,-1.60
2023-01-29T02:06:52.455Z,-1.80
2023-01-29T02:09:47.544Z,-2.20
2023-01-29T02:12:18.894Z,-2.20
2023-01-29T02:14:48.116Z,-1.90
2023-01-29T02:17:20.283Z,-2.30
2023-01-29T02:20:00.662Z,-1.70
2023-01-29T02:22:57.378Z,-2.40
2023-01-29T02:26:01.581Z,-2.40
2023-01-29T02:28:42.333Z,-2.40
2023-01-29T02:31:18.667Z,-1.40
2023-01-29T02:33:57.588Z,-2.30
2023-01-29T02:36:35.511Z,-2.20
2023-01-29T02:39:13.996Z,-2.20
2023-01-29T02:41:49.157Z,-2.20
2023-01-29T02:44:25.627Z,-2.20
2023-01-29T02:47:01.132Z,-2.20
2023-01-29T02:49:37.825Z,-1.80
2023-01-29T02:52:11.950Z,-2.10
2023-01-29T02:54:46.992Z,-1.80
2023-01-29T02:57:26.053Z,-0.80
2023-01-29T03:00:00.226Z,-1.00
2023-01-29T03:02:35.797Z,-1.30
2023-01-29T03:05:10.707Z,-1.90
2023-01-29T03:07:45.116Z,-1.20
2023-01-29T03:10:39.730Z,-1.30
2023-01-29T03:13:15.940Z,-0.90
2023-01-29T03:15:52.617Z,-1.20
2023-01-29T03:18:46.255Z,-1.60
2023-01-29T03:21:35.408Z,-1.60
2023-01-29T03:24:25.061Z,-0.70
2023-01-29T03:27:11.905Z,-1.60
2023-01-29T03:30:05.221Z,-1.60
2023-01-29T03:32:53.186Z,-1.60
2023-01-29T03:35:33.624Z,-1.60
2023-01-29T03:38:04.416Z,-1.60
2023-01-29T03:40:40.930Z,-1.60
2023-01-29T03:43:16.531Z,-1.60
2023-01-29T03:45:58.178Z,-1.60
2023-01-29T03:48:37.086Z,-1.50
2023-01-29T03:51:21.006Z,-1.50
2023-01-29T03:53:57.648Z,-1.60
2023-01-29T03:56:41.063Z,-0.90
2023-01-29T03:59:22.136Z,-1.60
2023-01-29T04:02:15.872Z,-0.70
2023-01-29T04:04:48.816Z,-1.50
2023-01-29T04:07:24.876Z,-1.60
2023-01-29T04:10:06.491Z,-1.60
2023-01-29T04:12:44.772Z,-0.80
2023-01-29T04:15:17.613Z,-1.60
2023-01-29T04:17:53.178Z,-1.70
2023-01-29T04:20:47.179Z,-1.00
2023-01-29T04:23:25.307Z,-1.70
2023-01-29T04:26:08.465Z,-1.20
2023-01-29T04:28:55.491Z,-1.00
2023-01-29T04:31:26.909Z,-1.60
2023-01-29T04:34:04.720Z,-1.60
2023-01-29T04:36:43.452Z,-1.50
2023-01-29T04:39:19.544Z,-1.60
2023-01-29T04:41:54.484Z,-1.70
2023-01-29T04:44:34.512Z,-1.70
2023-01-29T04:47:12.351Z,-0.80
2023-01-29T04:49:47.615Z,-1.50
2023-01-29T04:52:26.299Z,-1.10
2023-01-29T04:55:06.368Z,-1.70
2023-01-29T04:57:39.504Z,-1.30
2023-01-29T05:00:15.513Z,-1.00
2023-01-29T05:02:46.396Z,-1.70
2023-01-29T05:05:18.116Z,-1.60
2023-01-29T05:07:50.348Z,-1.70
2023-01-29T05:10:21.536Z,-1.70
2023-01-29T05:12:56.419Z,-1.60
2023-01-29T05:15:28.749Z,-1.10
2023-01-29T05:18:02.088Z,-1.70
2023-01-29T05:20:33.949Z,-0.80
2023-01-29T05:23:04.790Z,-1.60
2023-01-29T05:25:35.638Z,-1.60
2023-01-29T05:28:06.856Z,-1.60
2023-01-29T05:30:37.737Z,-1.60
2023-01-29T05:33:13.491Z,-1.60
2023-01-29T05:35:42.823Z,-1.70
2023-01-29T05:38:13.401Z,-1.60
2023-01-29T05:40:43.155Z,-1.10
2023-01-29T05:43:18.131Z,-1.70
2023-01-29T05:45:55.437Z,-0.90
2023-01-29T05:48:24.755Z,-1.70
2023-01-29T05:50:53.869Z,-1.70
2023-01-29T05:53:25.817Z,-1.70
2023-01-29T05:55:57.578Z,-1.70
2023-01-29T05:58:26.663Z,-1.50
2023-01-29T06:00:55.645Z,-1.80
2023-01-29T06:03:24.624Z,-1.80
2023-01-29T06:05:53.710Z,-1.70
2023-01-29T06:08:24.363Z,-1.80
2023-01-29T06:10:53.470Z,-1.80
2023-01-29T06:13:23.720Z,-1.80
2023-01-29T06:15:53.302Z,-1.80
2023-01-29T06:18:22.353Z,-1.80
2023-01-29T06:20:51.877Z,-1.70
2023-01-29T06:23:20.975Z,-1.30
2023-01-29T06:25:51.565Z,-0.90
2023-01-29T06:28:20.982Z,-1.10
2023-01-29T06:30:50.205Z,-1.90
2023-01-29T06:33:19.063Z,-1.80
2023-01-29T06:35:48.641Z,-1.80
2023-01-29T06:38:17.854Z,-1.60
2023-01-29T06:40:47.113Z,-1.90
2023-01-29T06:43:17.518Z,-0.60
2023-01-29T06:45:51.191Z,-1.90
2023-01-29T06:48:21.228Z,-1.90
2023-01-29T06:50:51.034Z,-1.90
2023-01-29T06:53:20.370Z,-1.90
2023-01-29T06:55:53.923Z,-1.00
2023-01-29T06:58:24.514Z,-1.90
2023-01-29T07:00:53.815Z,-1.90
2023-01-29T07:03:23.075Z,-1.90
2023-01-29T07:05:55.466Z,-1.40
2023-01-29T07:08:24.608Z,-1.90
2023-01-29T07:10:53.199Z,-1.90
2023-01-29T07:13:23.851Z,-1.50
2023-01-29T07:15:54.066Z,-1.80
2023-01-29T07:18:22.788Z,-1.70
2023-01-29T07:20:52.226Z,-1.70
2023-01-29T07:23:21.562Z,-1.60
2023-01-29T07:25:51.150Z,-1.00
2023-01-29T07:28:20.875Z,-1.60
2023-01-29T07:30:51.510Z,-0.90
2023-01-29T07:33:20.796Z,-1.60
2023-01-29T07:35:49.522Z,-1.50
2023-01-29T07:41:39.097Z,-1.40
2023-01-29T07:44:17.686Z,-1.30
2023-01-29T07:46:48.428Z,-1.30
2023-01-29T07:50:15.638Z,-1.30
2023-01-29T07:53:06.278Z,-0.50
2023-01-29T07:55:35.646Z,-1.00
2023-01-29T07:58:08.494Z,-1.10
2023-01-29T08:00:38.882Z,-0.60
2023-01-29T08:03:13.307Z,-0.70
2023-01-29T08:05:42.756Z,-0.70
2023-01-29T08:08:15.435Z,-0.50
2023-01-29T08:10:44.933Z,-0.70
2023-01-29T08:13:14.128Z,-0.80
2023-01-29T08:15:46.473Z,-1.00
2023-01-29T08:18:19.228Z,-0.30
2023-01-29T08:20:48.662Z,-0.70
2023-01-29T08:23:32.124Z,-0.90
2023-01-29T08:26:01.352Z,0.10
2023-01-29T08:28:30.787Z,-0.80
2023-01-29T08:31:00.117Z,-0.80
2023-01-29T08:33:42.100Z,-0.70
2023-01-29T08:36:13.538Z,-0.70
2023-01-29T08:38:42.790Z,-0.60
2023-01-29T08:41:12.206Z,-0.50
2023-01-29T08:43:42.957Z,-0.50
2023-01-29T08:46:12.212Z,-0.50
2023-01-29T08:48:42.688Z,-0.20
2023-01-29T08:51:11.552Z,-0.40
2023-01-29T08:53:40.455Z,-0.30
2023-01-29T08:56:11.739Z,-0.20
2023-01-29T08:58:40.919Z,-0.20
2023-01-29T09:01:11.426Z,-0.20
2023-01-29T09:03:45.030Z,-0.30
2023-01-29T09:06:17.527Z,0.20
2023-01-29T09:08:50.249Z,0.20
2023-01-29T09:11:19.585Z,-0.20
2023-01-29T09:13:48.144Z,0.60
2023-01-29T09:16:21.595Z,0.00
2023-01-29T09:18:52.325Z,-0.10
2023-01-29T09:21:21.443Z,0.10
2023-01-29T09:23:51.259Z,0.20
2023-01-29T09:26:20.726Z,0.20
2023-01-29T09:28:50.356Z,0.10
2023-01-29T09:31:28.283Z,0.10
2023-01-29T09:33:59.147Z,0.10
2023-01-29T09:36:31.853Z,0.70
2023-01-29T09:39:03.909Z,0.40
2023-01-29T09:41:45.121Z,0.60
2023-01-29T09:44:21.884Z,0.70
2023-01-29T09:46:55.445Z,0.70
2023-01-29T09:49:28.557Z,0.90
2023-01-29T09:52:03.561Z,1.00
2023-01-29T09:54:45.812Z,0.70
2023-01-29T09:57:28.047Z,0.90
2023-01-29T10:00:00.594Z,1.00
2023-01-29T10:06:00.424Z,1.40
2023-01-29T10:08:53.086Z,1.70
2023-01-29T10:11:34.984Z,1.50
2023-01-29T10:14:20.697Z,1.40
2023-01-29T10:17:09.505Z,1.50
2023-01-29T10:19:59.528Z,1.60
2023-01-29T10:22:43.682Z,1.30
2023-01-29T10:25:18.366Z,1.40
2023-01-29T10:27:59.675Z,1.60
2023-01-29T10:30:35.286Z,1.60
2023-01-29T10:33:07.202Z,1.90
2023-01-29T10:35:40.823Z,1.90
2023-01-29T10:38:30.325Z,1.70
2023-01-29T10:41:13.244Z,1.70
2023-01-29T10:43:53.854Z,1.70
2023-01-29T10:46:33.613Z,1.70
2023-01-29T10:49:13.211Z,1.70
2023-01-29T10:52:00.282Z,2.00
2023-01-29T10:54:54.383Z,2.30
2023-01-29T10:57:50.720Z,2.20
2023-01-29T11:00:27.952Z,2.40
2023-01-29T11:02:57.347Z,2.10
2023-01-29T11:05:31.598Z,2.10
2023-01-29T11:08:07.318Z,2.10
2023-01-29T11:10:49.376Z,2.00
2023-01-29T11:13:20.191Z,1.90
2023-01-29T11:15:53.703Z,1.80
2023-01-29T11:18:24.697Z,1.80
2023-01-29T11:21:04.540Z,1.80
2023-01-29T11:23:47.104Z,1.70
2023-01-29T11:26:22.792Z,1.70
2023-01-29T11:28:53.446Z,2.00
2023-01-29T11:31:28.304Z,1.60
2023-01-29T11:34:07.736Z,1.50
2023-01-29T11:36:40.300Z,1.60
2023-01-29T11:39:21.874Z,1.80
2023-01-29T11:41:57.405Z,1.70
2023-01-29T11:44:35.157Z,1.70
2023-01-29T11:47:19.893Z,1.80
2023-01-29T11:49:51.509Z,1.80
2023-01-29T11:52:23.378Z,2.10
2023-01-29T11:54:56.786Z,1.90
2023-01-29T11:57:31.479Z,1.80
2023-01-29T12:00:05.190Z,1.60
2023-01-29T12:02:40.969Z,1.50
2023-01-29T12:05:18.130Z,1.50
2023-01-29T12:07:50.665Z,1.60
2023-01-29T12:10:34.393Z,1.70
2023-01-29T12:13:21.012Z,1.80
2023-01-29T12:15:53.203Z,1.80
2023-01-29T12:18:30.458Z,1.80
2023-01-29T12:21:04.790Z,1.80
2023-01-29T12:23:42.479Z,1.70
2023-01-29T12:26:16.218Z,1.70
2023-01-29T12:28:56.406Z,1.70
2023-01-29T12:31:31.098Z,1.80
2023-01-29T12:34:12.381Z,1.90
2023-01-29T12:36:47.769Z,2.10
2023-01-29T12:39:19.145Z,2.10
2023-01-29T12:41:54.408Z,2.00
2023-01-29T12:44:34.002Z,1.80
2023-01-29T12:47:08.005Z,1.70
2023-01-29T12:49:41.372Z,1.70
2023-01-29T12:52:15.277Z,1.70
2023-01-29T12:54:50.255Z,1.70
2023-01-29T12:57:26.206Z,1.60
2023-01-29T13:00:03.571Z,1.60
2023-01-29T13:02:39.523Z,1.60
2023-01-29T13:05:22.057Z,1.60
2023-01-29T13:07:56.478Z,1.70
2023-01-29T13:10:31.699Z,1.70
2023-01-29T13:13:06.905Z,1.80
2023-01-29T13:15:40.855Z,1.70
2023-01-29T13:18:32.975Z,1.80
2023-01-29T13:21:06.280Z,1.70
2023-01-29T13:23:39.276Z,1.80
2023-01-29T13:26:12.331Z,1.70
2023-01-29T13:28:42.631Z,1.70
2023-01-29T13:31:32.050Z,1.70
2023-01-29T13:34:09.603Z,1.70
2023-01-29T13:36:45.427Z,1.80
2023-01-29T13:39:26.246Z,1.80
2023-01-29T13:41:56.663Z,1.90
2023-01-29T13:44:28.997Z,1.70
2023-01-29T13:47:05.651Z,2.00
2023-01-29T13:49:41.137Z,1.80
2023-01-29T13:52:22.500Z,1.90
2023-01-29T13:54:59.101Z,1.90
2023-01-29T13:57:56.139Z,1.80
2023-01-29T14:00:59.717Z,1.70
2023-01-29T14:04:06.240Z,1.70
2023-01-29T14:06:52.781Z,1.70
2023-01-29T14:09:57.968Z,1.70
2023-01-29T14:12:48.029Z,1.70
2023-01-29T14:15:26.310Z,1.80
2023-01-29T14:18:08.331Z,1.80
2023-01-29T14:20:45.833Z,1.80
2023-01-29T14:23:37.750Z,1.70
2023-01-29T14:26:20.576Z,1.70
2023-01-29T14:29:00.273Z,1.70
2023-01-29T14:31:32.546Z,1.70
2023-01-29T14:34:08.601Z,1.70
2023-01-29T14:36:45.488Z,1.80
2023-01-29T14:39:32.100Z,1.80
2023-01-29T14:42:04.713Z,1.80
2023-01-29T14:45:07.766Z,1.70
2023-01-29T14:47:57.114Z,1.70
2023-01-29T14:50:48.816Z,1.70
2023-01-29T14:53:25.940Z,1.70
2023-01-29T14:56:01.886Z,1.70
2023-01-29T14:58:42.123Z,1.70
2023-01-29T15:01:21.937Z,1.70
2023-01-29T15:03:53.719Z,1.60
2023-01-29T15:06:31.140Z,1.50
2023-01-29T15:09:11.852Z,1.50
2023-01-29T15:11:50.967Z,1.50
2023-01-29T15:14:30.796Z,1.40
2023-01-29T15:17:17.762Z,1.30
2023-01-29T15:19:49.917Z,1.20
2023-01-29T15:22:21.755Z,1.20
2023-01-29T15:25:07.624Z,1.20
2023-01-29T15:27:38.535Z,1.20
2023-01-29T15:30:10.086Z,1.10
2023-01-29T15:32:42.194Z,1.00
2023-01-29T15:35:13.868Z,1.00
2023-01-29T15:37:43.331Z,0.80
2023-01-29T15:40:22.167Z,0.80
2023-01-29T15:42:54.220Z,0.80
2023-01-29T15:45:26.441Z,0.80
2023-01-29T15:48:00.250Z,0.80
2023-01-29T15:50:30.833Z,0.80
2023-01-29T15:53:03.941Z,0.90
2023-01-29T15:55:35.535Z,0.90
2023-01-29T15:58:05.082Z,0.80
2023-01-29T16:00:35.261Z,0.90
2023-01-29T16:03:16.449Z,0.90
2023-01-29T16:05:45.989Z,0.90
2023-01-29T16:08:17.011Z,0.90
2023-01-29T16:10:51.720Z,0.90
2023-01-29T16:13:24.431Z,0.90
2023-01-29T16:15:58.326Z,0.90
2023-01-29T16:18:35.181Z,0.90
2023-01-29T16:21:09.318Z,0.90
2023-01-29T16:23:45.585Z,0.80
2023-01-29T16:26:19.768Z,0.80
2023-01-29T16:28:50.389Z,0.80
2023-01-29T16:31:26.428Z,0.80
2023-01-29T16:33:57.098Z,0.80
2023-01-29T16:36:28.350Z,0.80
2023-01-29T16:39:00.690Z,0.80
2023-01-29T16:41:37.079Z,0.80
2023-01-29T16:44:29.401Z,0.80
2023-01-29T16:46:58.907Z,0.80
2023-01-29T16:49:51.615Z,0.90
2023-01-29T16:52:25.202Z,0.90
2023-01-29T16:54:54.922Z,0.90
2023-01-29T16:57:28.073Z,0.90
2023-01-29T17:00:05.671Z,0.90
2023-01-29T17:02:39.153Z,0.90
2023-01-29T17:05:12.354Z,0.80
2023-01-29T17:07:46.067Z,0.80
2023-01-29T17:10:20.031Z,0.80
2023-01-29T17:12:56.934Z,0.80
2023-01-29T17:15:37.854Z,0.80
2023-01-29T17:18:18.835Z,0.70
2023-01-29T17:20:49.091Z,0.70
2023-01-29T17:23:18.948Z,0.70
2023-01-29T17:25:49.627Z,0.70
2023-01-29T17:28:21.820Z,0.70
2023-01-29T17:31:05.268Z,0.70
2023-01-29T17:33:35.899Z,0.70
2023-01-29T17:36:06.257Z,0.60
2023-01-29T17:38:36.150Z,0.60
2023-01-29T17:41:12.655Z,0.60
2023-01-29T17:43:44.907Z,0.60
2023-01-29T17:46:18.400Z,0.60
2023-01-29T17:48:50.277Z,0.50
2023-01-29T17:51:21.204Z,0.50
2023-01-29T17:53:52.076Z,0.60
2023-01-29T17:56:27.975Z,0.60
2023-01-29T17:59:01.806Z,0.50
2023-01-29T18:01:31.378Z,0.60
2023-01-29T18:04:00.681Z,0.60
2023-01-29T18:06:31.903Z,0.60
2023-01-29T18:09:01.596Z,0.50
2023-01-29T18:11:31.497Z,0.50
2023-01-29T18:14:06.327Z,0.40
2023-01-29T18:16:45.607Z,0.30
2023-01-29T18:19:17.360Z,0.30
2023-01-29T18:21:47.143Z,0.30
2023-01-29T18:24:17.807Z,0.40
2023-01-29T18:26:51.538Z,0.30
2023-01-29T18:29:22.541Z,0.20
2023-01-29T18:31:52.858Z,0.20
2023-01-29T18:34:24.574Z,0.20
2023-01-29T18:36:54.494Z,0.20
2023-01-29T18:39:24.326Z,0.20
2023-01-29T18:41:55.566Z,0.30
2023-01-29T18:44:26.002Z,0.20
2023-01-29T18:46:55.589Z,0.30
2023-01-29T18:49:25.685Z,0.30
2023-01-29T18:51:57.111Z,0.30
2023-01-29T18:54:25.922Z,0.30
2023-01-29T18:57:13.895Z,0.20
2023-01-29T18:59:46.457Z,0.20
2023-01-29T19:02:17.870Z,0.20
2023-01-29T19:04:49.120Z,0.10
2023-01-29T19:07:18.684Z,0.10
2023-01-29T19:09:48.996Z,0.10
2023-01-29T19:12:18.689Z,0.20
2023-01-29T19:14:50.942Z,-0.30
2023-01-29T19:17:20.978Z,0.50
2023-01-29T19:19:51.718Z,0.20
2023-01-29T19:22:21.563Z,0.30
2023-01-29T19:24:51.144Z,0.20
2023-01-29T19:27:22.235Z,0.20
2023-01-29T19:29:53.228Z,0.20
2023-01-29T19:32:23.252Z,0.20
2023-01-29T19:34:52.826Z,0.20
2023-01-29T19:37:22.300Z,0.30
2023-01-29T19:39:52.296Z,0.30
2023-01-29T19:42:22.635Z,0.30
2023-01-29T19:44:54.279Z,0.30
2023-01-29T19:47:23.484Z,0.30
2023-01-29T19:49:52.857Z,0.20
2023-01-29T19:52:50.854Z,0.20
2023-01-29T19:55:23.643Z,0.20
2023-01-29T19:57:55.036Z,0.20
2023-01-29T20:00:26.883Z,0.10
2023-01-29T20:02:56.689Z,0.20
2023-01-29T20:05:27.448Z,0.10
2023-01-29T20:07:57.717Z,0.10
2023-01-29T20:10:36.989Z,0.00
2023-01-29T20:13:07.347Z,0.00
2023-01-29T20:15:39.030Z,0.00
2023-01-29T20:18:12.252Z,0.00
2023-01-29T20:20:43.517Z,-0.10
2023-01-29T20:23:13.346Z,-0.10
2023-01-29T20:25:43.136Z,-0.10
2023-01-29T20:28:15.504Z,-0.20
2023-01-29T20:30:49.879Z,0.10
2023-01-29T20:33:19.524Z,-0.40
2023-01-29T20:35:54.888Z,-0.40
2023-01-29T20:38:30.523Z,-0.50
2023-01-29T20:41:05.664Z,-0.60
2023-01-29T20:43:35.492Z,-0.30
2023-01-29T20:46:08.150Z,-0.50
2023-01-29T20:48:37.770Z,-0.50
2023-01-29T20:51:09.883Z,-0.40
2023-01-29T20:53:41.431Z,-0.40
2023-01-29T20:56:11.877Z,-0.40
2023-01-29T20:58:42.061Z,-0.10
2023-01-29T21:01:16.593Z,-0.40
2023-01-29T21:03:47.219Z,-0.40
2023-01-29T21:06:17.782Z,-0.40
2023-01-29T21:08:49.068Z,-0.40
2023-01-29T21:11:21.491Z,-0.40
2023-01-29T21:13:53.585Z,-0.40
2023-01-29T21:16:24.141Z,-0.50
2023-01-29T21:18:58.501Z,-0.50
2023-01-29T21:21:28.250Z,0.20
2023-01-29T21:23:58.568Z,-0.40
2023-01-29T21:26:27.888Z,-0.40
2023-01-29T21:28:56.956Z,-0.40
2023-01-29T21:31:27.816Z,-0.40
2023-01-29T21:33:57.258Z,0.20
2023-01-29T21:36:27.369Z,0.40
2023-01-29T21:38:56.722Z,-0.50
2023-01-29T21:41:46.661Z,-0.50
2023-01-29T21:44:14.676Z,-0.60
2023-01-29T21:46:45.273Z,-0.60
2023-01-29T21:49:14.217Z,-0.70
2023-01-29T21:51:43.541Z,0.20
2023-01-29T21:54:13.038Z,-0.70
2023-01-29T21:56:42.427Z,-0.80
2023-01-29T21:59:11.893Z,-0.80
2023-01-29T22:01:41.091Z,-0.80
2023-01-29T22:04:12.529Z,-0.80
2023-01-29T22:06:41.735Z,-0.80
2023-01-29T22:09:12.167Z,-0.80
2023-01-29T22:11:42.494Z,-0.90
2023-01-29T22:14:11.769Z,-0.90
2023-01-29T22:16:41.201Z,0.10
2023-01-29T22:19:11.742Z,-0.90
2023-01-29T22:21:41.308Z,-0.90
2023-01-29T22:24:11.015Z,-0.90
2023-01-29T22:26:41.181Z,-1.00
2023-01-29T22:29:13.099Z,-1.00
2023-01-29T22:31:42.297Z,-1.00
2023-01-29T22:34:13.913Z,-1.10
2023-01-29T22:36:43.557Z,-1.10
2023-01-29T22:39:12.662Z,-0.60
2023-01-29T22:41:41.872Z,-1.20
2023-01-29T22:44:12.993Z,-1.20
2023-01-29T22:46:42.319Z,-1.20
2023-01-29T22:49:13.624Z,-0.90
2023-01-29T22:51:42.947Z,-1.30
2023-01-29T22:54:13.059Z,-0.70
2023-01-29T22:56:42.449Z,-0.90
2023-01-29T22:59:12.585Z,-0.40
2023-01-29T23:01:41.841Z,-1.10
2023-01-29T23:04:12.615Z,-1.10
2023-01-29T23:06:41.355Z,-1.00
2023-01-29T23:09:11.116Z,-0.60
2023-01-29T23:11:40.616Z,-1.00
2023-01-29T23:14:10.574Z,-1.00
2023-01-29T23:16:39.719Z,-0.90
2023-01-29T23:19:09.117Z,-0.50
2023-01-29T23:21:40.161Z,-0.90
2023-01-29T23:24:10.644Z,-0.90
2023-01-29T23:26:56.750Z,-0.80
2023-01-29T23:29:26.089Z,-0.70
2023-01-29T23:31:55.565Z,-0.20
2023-01-29T23:34:24.794Z,-0.80
2023-01-29T23:36:55.667Z,-0.70
2023-01-29T23:39:24.854Z,-0.70
2023-01-29T23:41:54.167Z,-0.70
2023-01-29T23:44:25.309Z,0.00
2023-01-29T23:46:54.914Z,-0.70
2023-01-29T23:49:23.833Z,-0.80
2023-01-29T23:51:54.612Z,0.00
2023-01-29T23:54:23.742Z,0.50
2023-01-29T23:56:52.811Z,-0.80
2023-01-29T23:59:22.442Z,0.10
